Time;durP1;ratioP1;P1;durP2;ratioP2;P2;SDS_P1;SDS_P2;PMS_P1;PMS_P2;Temp;Humidity;BMP_temperature;BMP_pressure;BME280_temperature;BME280_humidity;BME280_pressure;Samples;Min_cycle;Max_cycle;Signal;HPM_P1;HPM_P2
2023/08/15 00:00:11;;;;;;;0.60;0.60;;;;;;;;;;5013663;28;20230;-85
2023/08/15 00:02:40;;;;;;;0.30;0.30;;;;;;;;;;5013259;28;20196;-85
2023/08/15 00:05:10;;;;;;;2.00;1.43;;;;;;;;;;5013319;28;20265;-85
2023/08/15 00:07:38;;;;;;;1.70;0.87;;;;;;;;;;5012941;28;20221;-85
2023/08/15 00:10:07;;;;;;;1.40;0.97;;;;;;;;;;5013212;28;20213;-86
2023/08/15 00:12:36;;;;;;;0.40;0.40;;;;;;;;;;5013318;28;20208;-85
2023/08/15 00:15:05;;;;;;;7.63;0.50;;;;;;;;;;5013043;28;20201;-86
2023/08/15 00:17:34;;;;;;;0.40;0.40;;;;;;;;;;5013319;28;20212;-85
2023/08/15 00:20:02;;;;;;;0.37;0.37;;;;;;;;;;5013439;28;20201;-86
2023/08/15 00:22:32;;;;;;;2.67;0.80;;;;;;;;;;5013094;28;20211;-86
2023/08/15 00:25:03;;;;;;;0.40;0.40;;;;;;;;;;5013129;28;20200;-85
2023/08/15 00:27:32;;;;;;;0.30;0.30;;;;;;;;;;5013346;28;20210;-86
2023/08/15 00:30:00;;;;;;;0.40;0.40;;;;;;;;;;5012762;28;20205;-85
2023/08/15 00:32:31;;;;;;;0.30;0.30;;;;;;;;;;5012422;28;20213;-86
2023/08/15 00:34:59;;;;;;;0.40;0.40;;;;;;;;;;5013055;28;20219;-89
2023/08/15 00:37:28;;;;;;;0.30;0.30;;;;;;;;;;5013687;28;20196;-89
2023/08/15 00:39:58;;;;;;;0.50;0.50;;;;;;;;;;5013520;28;20201;-90
2023/08/15 00:42:26;;;;;;;1.30;1.30;;;;;;;;;;5012854;28;20202;-89
2023/08/15 00:44:55;;;;;;;0.30;0.30;;;;;;;;;;5013025;28;20220;-89
2023/08/15 00:47:23;;;;;;;0.97;0.97;;;;;;;;;;5013534;28;20203;-89
2023/08/15 00:49:54;;;;;;;0.30;0.30;;;;;;;;;;5012764;28;20243;-86
2023/08/15 00:52:23;;;;;;;0.30;0.30;;;;;;;;;;5011981;28;20319;-85
2023/08/15 00:54:51;;;;;;;0.33;0.33;;;;;;;;;;5012846;28;20205;-85
2023/08/15 00:57:22;;;;;;;1.17;1.17;;;;;;;;;;5012663;28;20203;-86
2023/08/15 00:59:51;;;;;;;1.20;1.20;;;;;;;;;;5012190;28;20285;-86
2023/08/15 01:02:19;;;;;;;0.30;0.30;;;;;;;;;;5012714;28;20208;-86
2023/08/15 01:04:49;;;;;;;0.37;0.37;;;;;;;;;;5013153;28;20216;-85
2023/08/15 01:07:18;;;;;;;0.53;0.53;;;;;;;;;;5012352;28;20203;-85
2023/08/15 01:09:47;;;;;;;0.40;0.40;;;;;;;;;;5012152;28;20300;-86
2023/08/15 01:12:22;;;;;;;0.50;0.50;;;;;;;;;;5012163;28;20216;-85
2023/08/15 01:14:53;;;;;;;7.93;1.07;;;;;;;;;;5012553;28;20347;-85
2023/08/15 01:17:26;;;;;;;4.63;1.10;;;;;;;;;;5011675;28;20286;-86
2023/08/15 01:19:55;;;;;;;1.17;1.17;;;;;;;;;;5012430;28;20211;-85
2023/08/15 01:22:25;;;;;;;1.47;0.87;;;;;;;;;;5011868;28;20193;-86
2023/08/15 01:24:55;;;;;;;1.00;1.00;;;;;;;;;;5011909;28;20198;-86
2023/08/15 01:27:24;;;;;;;0.50;0.50;;;;;;;;;;5011611;28;20202;-85
2023/08/15 01:29:53;;;;;;;1.23;1.13;;;;;;;;;;5012265;28;20225;-85
2023/08/15 01:32:25;;;;;;;2.10;2.00;;;;;;;;;;5011738;28;20191;-86
2023/08/15 01:34:58;;;;;;;0.60;0.60;;;;;;;;;;5011519;28;20208;-86
2023/08/15 01:37:30;;;;;;;0.40;0.40;;;;;;;;;;5012263;28;20288;-86
2023/08/15 01:40:02;;;;;;;0.30;0.30;;;;;;;;;;5011953;28;20227;-85
2023/08/15 01:42:31;;;;;;;0.30;0.30;;;;;;;;;;5011869;28;20196;-85
2023/08/15 01:45:01;;;;;;;0.30;0.30;;;;;;;;;;5011607;28;20216;-85
2023/08/15 01:47:31;;;;;;;0.53;0.50;;;;;;;;;;5011974;28;20208;-86
2023/08/15 01:49:59;;;;;;;0.53;0.53;;;;;;;;;;5011939;28;20343;-85
2023/08/15 01:52:28;;;;;;;0.40;0.40;;;;;;;;;;5011540;28;20232;-86
2023/08/15 01:54:57;;;;;;;3.57;1.00;;;;;;;;;;5011791;28;20200;-85
2023/08/15 01:57:27;;;;;;;0.40;0.40;;;;;;;;;;5012009;28;20272;-86
2023/08/15 01:59:55;;;;;;;2.60;2.30;;;;;;;;;;5011701;28;20241;-86
2023/08/15 02:02:24;;;;;;;0.50;0.50;;;;;;;;;;5012717;28;20205;-85
2023/08/15 02:04:52;;;;;;;3.57;1.60;;;;;;;;;;5016032;28;20203;-85
2023/08/15 02:07:21;;;;;;;0.30;0.30;;;;;;;;;;5015960;28;20201;-85
2023/08/15 02:09:50;;;;;;;1.30;1.23;;;;;;;;;;5015317;28;20207;-86
2023/08/15 02:12:18;;;;;;;4.23;1.20;;;;;;;;;;5015277;28;20216;-85
2023/08/15 02:14:48;;;;;;;0.40;0.40;;;;;;;;;;5016011;28;20209;-86
2023/08/15 02:17:17;;;;;;;1.17;1.07;;;;;;;;;;5016328;28;20208;-85
2023/08/15 02:19:46;;;;;;;0.50;0.50;;;;;;;;;;5015253;28;20205;-85
2023/08/15 02:22:15;;;;;;;0.70;0.70;;;;;;;;;;5015419;28;20371;-86
2023/08/15 02:24:44;;;;;;;3.60;1.47;;;;;;;;;;5015424;28;20200;-85
2023/08/15 02:27:13;;;;;;;0.57;0.57;;;;;;;;;;5014598;28;20212;-85
2023/08/15 02:29:42;;;;;;;0.63;0.60;;;;;;;;;;5015749;28;20209;-85
2023/08/15 02:32:12;;;;;;;17.57;1.90;;;;;;;;;;5015098;28;20239;-85
2023/08/15 02:34:40;;;;;;;0.40;0.40;;;;;;;;;;5015199;28;20232;-85
2023/08/15 02:37:09;;;;;;;8.30;0.60;;;;;;;;;;5014976;28;20207;-85
2023/08/15 02:39:38;;;;;;;0.83;0.83;;;;;;;;;;5015011;28;20207;-85
2023/08/15 02:42:06;;;;;;;0.30;0.30;;;;;;;;;;5015394;28;20187;-85
2023/08/15 02:44:35;;;;;;;4.33;0.90;;;;;;;;;;5014713;28;20214;-85
2023/08/15 02:47:03;;;;;;;1.90;1.80;;;;;;;;;;5014695;28;20199;-85
2023/08/15 02:49:33;;;;;;;0.70;0.70;;;;;;;;;;5015322;28;20221;-85
2023/08/15 02:52:02;;;;;;;4.63;1.33;;;;;;;;;;5014831;28;20232;-85
2023/08/15 02:54:30;;;;;;;1.90;1.53;;;;;;;;;;5014677;28;20214;-86
2023/08/15 02:56:59;;;;;;;0.60;0.60;;;;;;;;;;5014999;28;20256;-85
2023/08/15 02:59:27;;;;;;;0.53;0.53;;;;;;;;;;5015130;28;20208;-85
2023/08/15 03:01:56;;;;;;;9.00;1.60;;;;;;;;;;5014620;28;20236;-86
2023/08/15 03:04:24;;;;;;;0.73;0.73;;;;;;;;;;5013876;28;20196;-85
2023/08/15 03:06:54;;;;;;;1.00;1.00;;;;;;;;;;5015020;28;20207;-85
2023/08/15 03:09:23;;;;;;;1.13;1.13;;;;;;;;;;5014856;28;20228;-86
2023/08/15 03:11:52;;;;;;;0.47;0.47;;;;;;;;;;5014550;28;20228;-85
2023/08/15 03:14:20;;;;;;;0.30;0.30;;;;;;;;;;5013658;28;20216;-85
2023/08/15 03:16:49;;;;;;;0.70;0.70;;;;;;;;;;5014442;28;20204;-85
2023/08/15 03:19:17;;;;;;;1.33;1.00;;;;;;;;;;5014473;28;20204;-86
2023/08/15 03:21:46;;;;;;;1.50;1.50;;;;;;;;;;5014576;28;20209;-86
2023/08/15 03:24:18;;;;;;;0.30;0.30;;;;;;;;;;5014316;28;20213;-86
2023/08/15 03:26:46;;;;;;;0.63;0.63;;;;;;;;;;5014726;28;20211;-85
2023/08/15 03:29:15;;;;;;;0.30;0.30;;;;;;;;;;5013817;28;20213;-86
2023/08/15 03:31:43;;;;;;;3.47;1.43;;;;;;;;;;5014133;28;20226;-86
2023/08/15 03:34:12;;;;;;;0.57;0.57;;;;;;;;;;5014241;28;20250;-86
2023/08/15 03:36:41;;;;;;;0.43;0.43;;;;;;;;;;5014180;28;20204;-86
2023/08/15 03:39:09;;;;;;;0.37;0.37;;;;;;;;;;5013780;28;20206;-86
2023/08/15 03:41:39;;;;;;;0.60;0.50;;;;;;;;;;5013821;28;20200;-85
2023/08/15 03:44:08;;;;;;;2.43;1.50;;;;;;;;;;5013877;28;20213;-85
2023/08/15 03:46:36;;;;;;;0.53;0.53;;;;;;;;;;5013801;28;20200;-85
2023/08/15 03:49:07;;;;;;;0.30;0.30;;;;;;;;;;5013456;28;20260;-85
2023/08/15 03:51:36;;;;;;;0.47;0.47;;;;;;;;;;5013925;28;20322;-86
2023/08/15 03:54:14;;;;;;;0.80;0.80;;;;;;;;;;5013278;28;20192;-86
2023/08/15 03:56:44;;;;;;;0.83;0.83;;;;;;;;;;5013312;28;20202;-86
2023/08/15 03:59:13;;;;;;;2.60;0.63;;;;;;;;;;5014133;28;20219;-85
2023/08/15 04:01:41;;;;;;;2.63;1.23;;;;;;;;;;5013840;28;20231;-86
2023/08/15 04:04:10;;;;;;;0.40;0.40;;;;;;;;;;5013737;28;20453;-85
2023/08/15 04:06:39;;;;;;;1.47;1.43;;;;;;;;;;5013117;28;20200;-85
2023/08/15 04:09:07;;;;;;;2.07;1.90;;;;;;;;;;5013524;28;20249;-86
2023/08/15 04:11:36;;;;;;;0.30;0.30;;;;;;;;;;5014085;28;20253;-85
2023/08/15 04:14:06;;;;;;;2.17;1.17;;;;;;;;;;5013027;28;20273;-86
2023/08/15 04:16:35;;;;;;;5.73;0.97;;;;;;;;;;5013821;28;20214;-85
2023/08/15 04:19:04;;;;;;;0.60;0.60;;;;;;;;;;5013597;28;20303;-85
2023/08/15 04:21:32;;;;;;;0.30;0.30;;;;;;;;;;5013733;28;20218;-85
2023/08/15 04:24:01;;;;;;;1.73;1.60;;;;;;;;;;5013137;28;20209;-85
2023/08/15 04:26:30;;;;;;;8.03;0.87;;;;;;;;;;5012426;28;20210;-85
2023/08/15 04:28:59;;;;;;;12.47;3.97;;;;;;;;;;5013474;28;20207;-85
2023/08/15 04:31:29;;;;;;;4.80;1.40;;;;;;;;;;5012971;28;20221;-85
2023/08/15 04:33:57;;;;;;;0.70;0.70;;;;;;;;;;5013103;28;20236;-85
2023/08/15 04:36:26;;;;;;;0.77;0.77;;;;;;;;;;5013137;28;20212;-86
2023/08/15 04:38:55;;;;;;;0.30;0.30;;;;;;;;;;5013082;28;20295;-85
2023/08/15 04:41:23;;;;;;;0.40;0.40;;;;;;;;;;5012944;28;20207;-86
2023/08/15 04:43:52;;;;;;;2.07;1.63;;;;;;;;;;5012754;28;20213;-85
2023/08/15 04:46:20;;;;;;;0.70;0.70;;;;;;;;;;5013152;28;20212;-85
2023/08/15 04:48:50;;;;;;;6.03;2.23;;;;;;;;;;5012729;28;20214;-85
2023/08/15 04:51:19;;;;;;;2.93;1.30;;;;;;;;;;5012805;28;20292;-86
2023/08/15 04:53:48;;;;;;;2.07;1.50;;;;;;;;;;5012711;28;20201;-85
2023/08/15 04:56:16;;;;;;;1.17;1.03;;;;;;;;;;5012765;28;20274;-85
2023/08/15 04:58:45;;;;;;;16.43;1.00;;;;;;;;;;5012807;28;20203;-85
2023/08/15 05:01:15;;;;;;;2.03;0.97;;;;;;;;;;5013641;28;20245;-88
2023/08/15 05:03:44;;;;;;;1.63;0.67;;;;;;;;;;5013948;28;20201;-89
2023/08/15 05:06:14;;;;;;;3.30;1.33;;;;;;;;;;5013279;28;20194;-88
2023/08/15 05:08:45;;;;;;;4.33;1.73;;;;;;;;;;5013868;28;20212;-88
2023/08/15 05:11:14;;;;;;;1.33;1.07;;;;;;;;;;5015807;28;20207;-90
2023/08/15 05:13:43;;;;;;;2.27;2.17;;;;;;;;;;5013636;28;20227;-90
2023/08/15 05:16:12;;;;;;;2.53;1.23;;;;;;;;;;5012853;28;20325;-90
2023/08/15 05:18:40;;;;;;;1.10;1.00;;;;;;;;;;5014070;28;20206;-90
2023/08/15 05:21:09;;;;;;;1.13;1.00;;;;;;;;;;5014020;28;20258;-89
2023/08/15 05:23:41;;;;;;;1.50;0.80;;;;;;;;;;5014002;28;20196;-89
2023/08/15 05:26:10;;;;;;;4.37;2.77;;;;;;;;;;5014231;28;20203;-90
2023/08/15 05:28:38;;;;;;;1.80;1.27;;;;;;;;;;5013381;28;20214;-90
2023/08/15 05:31:07;;;;;;;3.50;1.60;;;;;;;;;;5013708;28;20257;-89
2023/08/15 05:33:35;;;;;;;0.97;0.97;;;;;;;;;;5012984;28;20222;-89
2023/08/15 05:36:04;;;;;;;0.80;0.80;;;;;;;;;;5013914;28;20250;-89
2023/08/15 05:38:36;;;;;;;1.70;1.30;;;;;;;;;;5013535;28;20207;-89
2023/08/15 05:41:05;;;;;;;2.03;1.50;;;;;;;;;;5013339;28;20207;-89
2023/08/15 05:43:34;;;;;;;1.40;0.93;;;;;;;;;;5013436;28;20202;-89
2023/08/15 05:46:03;;;;;;;0.77;0.70;;;;;;;;;;5014532;28;20214;-89
2023/08/15 05:48:31;;;;;;;1.90;1.80;;;;;;;;;;5014135;28;20257;-89
2023/08/15 05:51:00;;;;;;;0.90;0.83;;;;;;;;;;5013599;28;20221;-89
2023/08/15 05:53:29;;;;;;;1.93;1.27;;;;;;;;;;5012368;28;20246;-83
2023/08/15 05:55:58;;;;;;;1.30;1.20;;;;;;;;;;5012405;28;20209;-83
2023/08/15 05:58:27;;;;;;;0.80;0.80;;;;;;;;;;5011810;28;20197;-83
2023/08/15 06:00:56;;;;;;;0.77;0.77;;;;;;;;;;5011710;28;20232;-83
2023/08/15 06:03:25;;;;;;;6.40;2.40;;;;;;;;;;5011745;28;20192;-83
2023/08/15 06:06:13;;;;;;;2.00;1.40;;;;;;;;;;5012098;28;20235;-83
2023/08/15 06:08:42;;;;;;;1.20;0.93;;;;;;;;;;5012216;28;20196;-83
2023/08/15 06:11:10;;;;;;;1.47;1.00;;;;;;;;;;5012046;28;20204;-83
2023/08/15 06:13:40;;;;;;;2.00;1.17;;;;;;;;;;5012008;28;20224;-83
2023/08/15 06:16:09;;;;;;;1.20;1.10;;;;;;;;;;5011877;28;20203;-83
2023/08/15 06:18:41;;;;;;;2.90;1.33;;;;;;;;;;5011819;28;20214;-83
2023/08/15 06:21:09;;;;;;;0.33;0.33;;;;;;;;;;5012255;28;20200;-87
2023/08/15 06:23:38;;;;;;;3.83;1.03;;;;;;;;;;5012256;28;20262;-88
2023/08/15 06:26:06;;;;;;;3.87;1.13;;;;;;;;;;5012029;28;20206;-88
2023/08/15 06:28:35;;;;;;;0.50;0.50;;;;;;;;;;5012260;28;20230;-89
2023/08/15 06:31:04;;;;;;;1.33;1.23;;;;;;;;;;5011897;28;20202;-81
2023/08/15 06:33:32;;;;;;;3.83;1.23;;;;;;;;;;5010924;28;20272;-81
2023/08/15 06:36:01;;;;;;;1.80;0.97;;;;;;;;;;5011202;28;20220;-81
2023/08/15 06:38:29;;;;;;;0.57;0.57;;;;;;;;;;5011955;28;20206;-80
2023/08/15 06:40:58;;;;;;;0.87;0.87;;;;;;;;;;5011855;28;20237;-81
2023/08/15 06:43:27;;;;;;;1.67;1.10;;;;;;;;;;5011272;28;20194;-81
2023/08/15 06:45:55;;;;;;;4.00;1.73;;;;;;;;;;5011300;28;20212;-81
2023/08/15 06:48:25;;;;;;;0.97;0.87;;;;;;;;;;5011613;28;20205;-80
2023/08/15 06:50:54;;;;;;;1.13;0.73;;;;;;;;;;5014737;28;20233;-81
2023/08/15 06:53:22;;;;;;;2.03;1.67;;;;;;;;;;5014142;28;20272;-81
2023/08/15 06:55:51;;;;;;;2.57;1.27;;;;;;;;;;5015108;28;20202;-81
2023/08/15 06:58:20;;;;;;;4.00;1.67;;;;;;;;;;5014739;28;20207;-81
2023/08/15 07:00:49;;;;;;;2.87;1.63;;;;;;;;;;5014343;28;20332;-81
2023/08/15 07:03:18;;;;;;;1.00;0.87;;;;;;;;;;5014418;28;20208;-81
2023/08/15 07:05:49;;;;;;;3.97;0.87;;;;;;;;;;5014934;28;20213;-81
2023/08/15 07:08:18;;;;;;;3.87;1.17;;;;;;;;;;5014599;28;20229;-81
2023/08/15 07:10:46;;;;;;;2.20;1.20;;;;;;;;;;5014058;28;20203;-81
2023/08/15 07:13:15;;;;;;;3.17;1.57;;;;;;;;;;5014134;28;20226;-82
2023/08/15 07:15:43;;;;;;;0.97;0.97;;;;;;;;;;5014541;28;20207;-81
2023/08/15 07:18:11;;;;;;;2.50;1.40;;;;;;;;;;5014346;28;20218;-81
2023/08/15 07:20:40;;;;;;;1.17;1.13;;;;;;;;;;5014105;28;20206;-81
2023/08/15 07:23:10;;;;;;;1.80;0.83;;;;;;;;;;5014321;28;20198;-81
2023/08/15 07:25:43;;;;;;;1.93;1.33;;;;;;;;;;5014301;28;20201;-82
2023/08/15 07:28:12;;;;;;;5.77;1.33;;;;;;;;;;5013885;28;20206;-82
2023/08/15 07:30:41;;;;;;;0.60;0.60;;;;;;;;;;5014519;28;20207;-81
2023/08/15 07:33:10;;;;;;;2.80;1.20;;;;;;;;;;5014079;28;20231;-81
2023/08/15 07:35:38;;;;;;;3.07;1.57;;;;;;;;;;5014447;28;20285;-81
2023/08/15 07:38:08;;;;;;;3.07;2.77;;;;;;;;;;5014130;28;20207;-81
2023/08/15 07:40:38;;;;;;;1.53;1.10;;;;;;;;;;5014134;28;20250;-81
2023/08/15 07:43:06;;;;;;;1.13;0.90;;;;;;;;;;5013685;28;20212;-81
2023/08/15 07:45:35;;;;;;;1.67;1.10;;;;;;;;;;5013653;28;20223;-81
2023/08/15 07:48:04;;;;;;;3.70;2.07;;;;;;;;;;5013908;28;20319;-82
2023/08/15 07:50:33;;;;;;;0.80;0.80;;;;;;;;;;5013932;28;20234;-81
2023/08/15 07:53:01;;;;;;;1.07;0.90;;;;;;;;;;5013455;28;20214;-82
2023/08/15 07:55:32;;;;;;;1.50;1.23;;;;;;;;;;5013306;28;20202;-81
2023/08/15 07:58:02;;;;;;;1.27;0.93;;;;;;;;;;5013504;28;20208;-81
2023/08/15 08:00:30;;;;;;;4.53;2.43;;;;;;;;;;5013400;28;20265;-81
2023/08/15 08:03:00;;;;;;;2.43;1.30;;;;;;;;;;5013031;28;20204;-81
2023/08/15 08:05:29;;;;;;;0.70;0.70;;;;;;;;;;5013187;28;20197;-81
2023/08/15 08:08:01;;;;;;;2.43;1.33;;;;;;;;;;5014423;28;20483;-81
2023/08/15 08:10:30;;;;;;;1.37;1.27;;;;;;;;;;5013496;28;20203;-81
2023/08/15 08:12:59;;;;;;;3.93;1.77;;;;;;;;;;5013378;28;20205;-81
2023/08/15 08:15:30;;;;;;;3.83;1.70;;;;;;;;;;5013661;28;20261;-81
2023/08/15 08:17:58;;;;;;;4.73;2.07;;;;;;;;;;5013567;28;20215;-81
2023/08/15 08:20:29;;;;;;;3.03;1.43;;;;;;;;;;5013764;28;20206;-81
2023/08/15 08:22:57;;;;;;;0.47;0.47;;;;;;;;;;5013110;28;20275;-81
2023/08/15 08:25:26;;;;;;;0.23;0.23;;;;;;;;;;5013680;28;20196;-81
2023/08/15 08:27:55;;;;;;;1.03;0.90;;;;;;;;;;5013093;28;20243;-81
2023/08/15 08:30:25;;;;;;;2.00;1.33;;;;;;;;;;5012630;28;20209;-81
2023/08/15 08:32:57;;;;;;;0.80;0.80;;;;;;;;;;5013547;28;20206;-81
2023/08/15 08:35:26;;;;;;;3.43;1.80;;;;;;;;;;5013226;28;20351;-81
2023/08/15 08:37:55;;;;;;;1.93;1.23;;;;;;;;;;5012816;28;20214;-81
2023/08/15 08:40:24;;;;;;;1.60;0.60;;;;;;;;;;5012701;28;20206;-82
2023/08/15 08:42:52;;;;;;;1.30;1.30;;;;;;;;;;5012968;28;20204;-81
2023/08/15 08:45:24;;;;;;;2.77;0.93;;;;;;;;;;5012810;28;20204;-81
2023/08/15 08:47:53;;;;;;;4.20;2.27;;;;;;;;;;5012541;28;20335;-81
2023/08/15 08:50:23;;;;;;;4.27;2.00;;;;;;;;;;5012998;28;20235;-81
2023/08/15 08:52:52;;;;;;;2.10;0.77;;;;;;;;;;5012287;28;20200;-81
2023/08/15 08:55:21;;;;;;;4.77;1.93;;;;;;;;;;5012418;28;20223;-81
2023/08/15 08:57:50;;;;;;;4.17;2.20;;;;;;;;;;5012349;28;20215;-81
2023/08/15 09:00:20;;;;;;;2.33;1.13;;;;;;;;;;5012748;28;20289;-82
2023/08/15 09:02:49;;;;;;;1.80;1.47;;;;;;;;;;5012825;28;20210;-81
2023/08/15 09:05:18;;;;;;;3.53;1.90;;;;;;;;;;5012281;28;20285;-82
2023/08/15 09:07:48;;;;;;;0.50;0.50;;;;;;;;;;5012695;28;20237;-81
2023/08/15 09:10:17;;;;;;;2.63;1.13;;;;;;;;;;5012252;28;20223;-81
2023/08/15 09:12:47;;;;;;;3.77;1.83;;;;;;;;;;5011638;28;20205;-81
2023/08/15 09:15:15;;;;;;;5.37;1.87;;;;;;;;;;5011977;28;20245;-82
2023/08/15 09:17:44;;;;;;;1.13;0.87;;;;;;;;;;5012533;28;20208;-81
2023/08/15 09:20:14;;;;;;;2.37;1.27;;;;;;;;;;5012174;28;20292;-81
2023/08/15 09:22:44;;;;;;;7.97;1.63;;;;;;;;;;5012436;28;20242;-83
2023/08/15 09:25:15;;;;;;;0.83;0.83;;;;;;;;;;5012266;28;20209;-81
2023/08/15 09:27:44;;;;;;;3.37;1.43;;;;;;;;;;5012769;28;20210;-81
2023/08/15 09:30:14;;;;;;;2.40;1.00;;;;;;;;;;5012490;28;20195;-81
2023/08/15 09:32:43;;;;;;;2.53;0.70;;;;;;;;;;5011928;28;20215;-81
2023/08/15 09:35:13;;;;;;;1.97;1.27;;;;;;;;;;5012067;28;20220;-81
2023/08/15 09:37:42;;;;;;;2.33;1.10;;;;;;;;;;5012774;28;20201;-81
2023/08/15 09:40:16;;;;;;;1.47;1.33;;;;;;;;;;5011739;28;20207;-81
2023/08/15 09:42:46;;;;;;;3.23;1.70;;;;;;;;;;5012390;28;20208;-82
2023/08/15 09:45:15;;;;;;;3.10;1.63;;;;;;;;;;5012191;28;20202;-81
2023/08/15 09:47:44;;;;;;;3.27;1.60;;;;;;;;;;5012183;28;20303;-81
2023/08/15 09:50:13;;;;;;;0.83;0.70;;;;;;;;;;5011889;28;20207;-81
2023/08/15 09:52:43;;;;;;;1.67;1.57;;;;;;;;;;5012104;28;20233;-81
2023/08/15 09:55:12;;;;;;;1.43;0.83;;;;;;;;;;5011851;28;20218;-81
2023/08/15 09:57:43;;;;;;;4.03;0.90;;;;;;;;;;5012194;28;20213;-81
2023/08/15 10:00:13;;;;;;;1.50;1.40;;;;;;;;;;5012063;28;20237;-82
2023/08/15 10:02:44;;;;;;;0.80;0.80;;;;;;;;;;5011657;28;20302;-81
2023/08/15 10:05:13;;;;;;;0.40;0.40;;;;;;;;;;5012116;28;20198;-81
2023/08/15 10:07:43;;;;;;;1.97;1.77;;;;;;;;;;5011789;28;20202;-81
2023/08/15 10:10:11;;;;;;;2.53;1.80;;;;;;;;;;5012135;28;20207;-81
2023/08/15 10:12:42;;;;;;;3.00;1.57;;;;;;;;;;5011917;28;20218;-80
2023/08/15 10:15:12;;;;;;;1.60;1.33;;;;;;;;;;5011722;28;20223;-82
2023/08/15 10:17:40;;;;;;;1.40;1.30;;;;;;;;;;5012111;28;20206;-81
2023/08/15 10:20:12;;;;;;;4.10;1.87;;;;;;;;;;5012327;28;20208;-82
2023/08/15 10:22:40;;;;;;;3.73;1.90;;;;;;;;;;5012223;28;20233;-81
2023/08/15 10:25:33;;;;;;;1.80;1.07;;;;;;;;;;5014754;28;20202;-81
2023/08/15 10:28:05;;;;;;;18.50;1.40;;;;;;;;;;5015326;28;20202;-82
2023/08/15 10:30:36;;;;;;;1.53;1.40;;;;;;;;;;5015167;28;20204;-81
2023/08/15 10:33:14;;;;;;;1.50;1.37;;;;;;;;;;5015116;28;20326;-81
2023/08/15 10:35:46;;;;;;;2.20;1.13;;;;;;;;;;5015140;28;20269;-81
2023/08/15 10:38:15;;;;;;;0.60;0.60;;;;;;;;;;5015245;28;20204;-82
2023/08/15 10:40:45;;;;;;;0.80;0.80;;;;;;;;;;5015453;28;20205;-81
2023/08/15 10:43:15;;;;;;;0.53;0.53;;;;;;;;;;5014752;28;20197;-81
2023/08/15 10:45:45;;;;;;;1.87;1.70;;;;;;;;;;5015374;28;20203;-81
2023/08/15 10:48:14;;;;;;;2.67;1.47;;;;;;;;;;5015603;28;20207;-81
2023/08/15 10:50:47;;;;;;;9.27;3.13;;;;;;;;;;5014992;28;20197;-81
2023/08/15 10:53:16;;;;;;;0.80;0.80;;;;;;;;;;5014800;28;20232;-81
2023/08/15 10:55:47;;;;;;;1.27;0.87;;;;;;;;;;5014740;28;20209;-81
2023/08/15 10:58:18;;;;;;;3.60;2.43;;;;;;;;;;5015012;28;20203;-81
2023/08/15 11:00:46;;;;;;;1.60;1.07;;;;;;;;;;5014644;28;20242;-81
2023/08/15 11:03:15;;;;;;;1.23;1.13;;;;;;;;;;5015067;28;20231;-82
2023/08/15 11:05:43;;;;;;;1.33;1.23;;;;;;;;;;5014577;28;20228;-82
2023/08/15 11:08:16;;;;;;;0.80;0.80;;;;;;;;;;5014589;28;20200;-81
2023/08/15 11:10:45;;;;;;;1.17;1.10;;;;;;;;;;5014875;28;20202;-81
2023/08/15 11:13:14;;;;;;;2.50;1.83;;;;;;;;;;5015044;28;20213;-83
2023/08/15 11:15:44;;;;;;;2.03;1.73;;;;;;;;;;5014568;28;20237;-81
2023/08/15 11:18:13;;;;;;;1.67;1.57;;;;;;;;;;5014565;28;20209;-81
2023/08/15 11:20:43;;;;;;;3.03;1.67;;;;;;;;;;5014523;28;20198;-82
2023/08/15 11:23:11;;;;;;;4.30;1.80;;;;;;;;;;5014504;28;20206;-83
2023/08/15 11:25:40;;;;;;;5.43;2.20;;;;;;;;;;5014147;28;20210;-81
2023/08/15 11:28:09;;;;;;;1.70;1.00;;;;;;;;;;5014269;28;20238;-81
2023/08/15 11:30:37;;;;;;;1.90;1.70;;;;;;;;;;5014485;28;20209;-82
2023/08/15 11:33:08;;;;;;;1.30;1.20;;;;;;;;;;5014479;28;20202;-82
2023/08/15 11:35:36;;;;;;;2.53;1.47;;;;;;;;;;5013183;28;20222;-82
2023/08/15 11:38:11;;;;;;;2.53;1.73;;;;;;;;;;5014546;28;20230;-81
2023/08/15 11:40:40;;;;;;;4.07;1.20;;;;;;;;;;5014232;28;20229;-82
2023/08/15 11:43:08;;;;;;;2.60;1.77;;;;;;;;;;5013772;28;20208;-82
2023/08/15 11:45:39;;;;;;;3.23;1.67;;;;;;;;;;5013406;28;20257;-81
2023/08/15 11:48:10;;;;;;;5.03;1.50;;;;;;;;;;5013781;28;20206;-82
2023/08/15 11:50:41;;;;;;;1.00;1.00;;;;;;;;;;5014200;28;20201;-81
2023/08/15 11:53:13;;;;;;;1.17;0.97;;;;;;;;;;5013536;28;20235;-81
2023/08/15 11:55:42;;;;;;;3.40;1.30;;;;;;;;;;5013833;28;20220;-81
2023/08/15 11:58:22;;;;;;;4.83;2.17;;;;;;;;;;5014105;28;20218;-81
2023/08/15 12:00:52;;;;;;;1.60;1.03;;;;;;;;;;5013705;28;20246;-81
2023/08/15 12:03:22;;;;;;;3.30;2.20;;;;;;;;;;5013054;28;20235;-81
2023/08/15 12:05:54;;;;;;;3.00;1.37;;;;;;;;;;5014165;28;20204;-81
2023/08/15 12:08:22;;;;;;;2.00;1.10;;;;;;;;;;5013969;28;20305;-81
2023/08/15 12:10:51;;;;;;;5.30;4.83;;;;;;;;;;5013725;28;20224;-81
2023/08/15 12:13:19;;;;;;;3.03;1.93;;;;;;;;;;5014072;28;20205;-81
2023/08/15 12:15:48;;;;;;;3.03;1.40;;;;;;;;;;5013387;28;20220;-82
2023/08/15 12:18:17;;;;;;;0.77;0.77;;;;;;;;;;5013348;28;20207;-81
2023/08/15 12:20:47;;;;;;;3.43;1.60;;;;;;;;;;5013441;28;20204;-81
2023/08/15 12:23:16;;;;;;;3.20;0.93;;;;;;;;;;5013120;28;20200;-81
2023/08/15 12:25:55;;;;;;;2.70;1.47;;;;;;;;;;5013572;28;20197;-82
2023/08/15 12:28:24;;;;;;;3.80;2.17;;;;;;;;;;5012575;28;20206;-81
2023/08/15 12:30:56;;;;;;;6.57;3.37;;;;;;;;;;5013371;28;20205;-81
2023/08/15 12:33:25;;;;;;;1.70;1.60;;;;;;;;;;5013414;28;20205;-81
2023/08/15 12:36:15;;;;;;;3.03;1.90;;;;;;;;;;5012936;28;20237;-81
2023/08/15 12:38:44;;;;;;;3.80;1.70;;;;;;;;;;5013181;28;20201;-81
2023/08/15 12:41:13;;;;;;;2.33;1.90;;;;;;;;;;5013914;28;20295;-81
2023/08/15 12:43:43;;;;;;;3.20;2.33;;;;;;;;;;5013090;28;20292;-81
2023/08/15 12:46:11;;;;;;;0.77;0.77;;;;;;;;;;5012290;28;20244;-80
2023/08/15 12:48:41;;;;;;;2.00;0.70;;;;;;;;;;5013037;28;20290;-81
2023/08/15 12:51:09;;;;;;;1.23;1.13;;;;;;;;;;5013204;28;20228;-81
2023/08/15 12:53:39;;;;;;;1.80;1.33;;;;;;;;;;5012578;28;20260;-82
2023/08/15 12:56:08;;;;;;;2.27;1.30;;;;;;;;;;5012935;28;20311;-81
2023/08/15 12:58:36;;;;;;;1.33;1.27;;;;;;;;;;5013222;28;20296;-81
2023/08/15 13:01:05;;;;;;;2.80;1.13;;;;;;;;;;5012669;28;20246;-81
2023/08/15 13:03:34;;;;;;;1.23;1.10;;;;;;;;;;5012519;28;20219;-82
2023/08/15 13:06:02;;;;;;;1.90;0.87;;;;;;;;;;5012762;28;20206;-81
2023/08/15 13:08:31;;;;;;;3.00;1.47;;;;;;;;;;5012690;28;20197;-82
2023/08/15 13:11:04;;;;;;;3.90;1.17;;;;;;;;;;5012411;28;20198;-81
2023/08/15 13:13:33;;;;;;;2.53;1.93;;;;;;;;;;5011960;28;20194;-83
2023/08/15 13:16:01;;;;;;;0.90;0.90;;;;;;;;;;5013136;28;20239;-83
2023/08/15 13:18:30;;;;;;;3.20;1.90;;;;;;;;;;5012749;28;20204;-83
2023/08/15 13:20:59;;;;;;;4.60;1.77;;;;;;;;;;5012438;28;20296;-84
2023/08/15 13:23:28;;;;;;;1.40;0.90;;;;;;;;;;5012785;28;20204;-84
2023/08/15 13:25:58;;;;;;;0.93;0.93;;;;;;;;;;5013075;28;20212;-83
2023/08/15 13:28:28;;;;;;;1.13;1.03;;;;;;;;;;5012703;28;20199;-85
2023/08/15 13:30:57;;;;;;;0.97;0.70;;;;;;;;;;5012060;28;20295;-84
2023/08/15 13:33:27;;;;;;;2.93;1.73;;;;;;;;;;5012745;28;20206;-84
2023/08/15 13:35:56;;;;;;;0.93;0.93;;;;;;;;;;5012967;28;20197;-83
2023/08/15 13:38:25;;;;;;;1.33;0.83;;;;;;;;;;5012470;28;20226;-83
2023/08/15 13:40:54;;;;;;;1.30;1.20;;;;;;;;;;5012689;28;20216;-84
2023/08/15 13:43:22;;;;;;;2.07;0.70;;;;;;;;;;5012535;28;20210;-83
2023/08/15 13:45:52;;;;;;;0.60;0.60;;;;;;;;;;5012982;28;20252;-84
2023/08/15 13:48:21;;;;;;;3.37;1.93;;;;;;;;;;5012138;28;20237;-84
2023/08/15 13:50:49;;;;;;;1.40;1.30;;;;;;;;;;5012002;28;20254;-84
2023/08/15 13:53:18;;;;;;;1.17;1.07;;;;;;;;;;5011799;28;20204;-84
2023/08/15 13:55:47;;;;;;;2.47;0.90;;;;;;;;;;5012410;28;20228;-84
2023/08/15 13:58:15;;;;;;;0.67;0.67;;;;;;;;;;5013771;28;20223;-83
2023/08/15 14:00:44;;;;;;;0.77;0.73;;;;;;;;;;5016466;28;20235;-83
2023/08/15 14:03:14;;;;;;;2.00;1.07;;;;;;;;;;5016762;28;20303;-84
2023/08/15 14:05:43;;;;;;;1.10;0.87;;;;;;;;;;5015765;28;20239;-84
2023/08/15 14:08:12;;;;;;;1.50;1.10;;;;;;;;;;5016069;28;20286;-84
2023/08/15 14:10:41;;;;;;;0.70;0.70;;;;;;;;;;5016255;28;20210;-84
2023/08/15 14:13:09;;;;;;;3.47;1.53;;;;;;;;;;5016707;28;20262;-84
2023/08/15 14:15:38;;;;;;;1.67;1.00;;;;;;;;;;5016129;28;20293;-84
2023/08/15 14:18:07;;;;;;;2.73;1.40;;;;;;;;;;5016940;28;20256;-84
2023/08/15 14:20:38;;;;;;;1.63;1.10;;;;;;;;;;5016802;28;20202;-84
2023/08/15 14:23:07;;;;;;;0.80;0.80;;;;;;;;;;5015697;28;20203;-85
2023/08/15 14:25:35;;;;;;;0.97;0.97;;;;;;;;;;5017019;28;20484;-84
2023/08/15 14:28:04;;;;;;;2.17;1.10;;;;;;;;;;5016034;28;20192;-84
2023/08/15 14:30:33;;;;;;;0.77;0.77;;;;;;;;;;5016619;28;20204;-84
2023/08/15 14:33:01;;;;;;;3.73;1.50;;;;;;;;;;5015890;28;20224;-84
2023/08/15 14:35:30;;;;;;;1.33;1.23;;;;;;;;;;5015982;28;20205;-84
2023/08/15 14:38:01;;;;;;;1.90;1.40;;;;;;;;;;5016157;28;20228;-86
2023/08/15 14:40:32;;;;;;;2.60;1.20;;;;;;;;;;5015894;28;20257;-85
2023/08/15 14:43:03;;;;;;;2.47;0.70;;;;;;;;;;5015477;28;20211;-85
2023/08/15 14:45:32;;;;;;;0.73;0.73;;;;;;;;;;5015587;28;20199;-85
2023/08/15 14:48:00;;;;;;;1.00;0.70;;;;;;;;;;5016014;28;20196;-86
2023/08/15 14:50:29;;;;;;;1.73;1.53;;;;;;;;;;5015579;28;20239;-85
2023/08/15 14:52:59;;;;;;;0.73;0.70;;;;;;;;;;5015313;28;20295;-85
2023/08/15 14:55:29;;;;;;;1.80;1.00;;;;;;;;;;5015666;28;20207;-85